Rana Miller — WDE7064 — position and weather

sailwx.info

Track history (hours):
 
Tides and Currents Weather Stations Pressure Air Temp Water Temp Dewpoint Dewpoint Depression Visibility Wind Speed Wind Dir Waves Ship Positions

Rana Miller

Owner: Miller's Tug & Barge, Staten Island, NY. More information available from US FCC via Universal Licensing System and Coast Guard Vessel Documentation Center.

Last reported at 2018-Feb-22 11:15 UTC. Time now 2018-Feb-24 14:07 UTC.
Position N 38°60' W 074°35'.

Length 40 m; draft 3.1 m.

Type: Ship. MMSI: 367388520.

Date/timePositionNaut miles runAvg speedWind from/ knotsBaromVisibWave heightAir tempDewpointWater temp
2018-Feb-22 11:15N 38°60' W 074°35'2 8.6
2018-Feb-22 10:59N 39°02' W 074°34'38 8.2
2018-Feb-22 06:23N 39°34' W 074°09'3 7.9
2018-Feb-22 05:59N 39°37' W 074°07'4 7.9
2018-Feb-22 05:29N 39°41' W 074°05'4 7.9
2018-Feb-22 05:00N 39°44' W 074°04'42 7.7
2018-Feb-21 23:34N 40°25' W 073°56'3 8.5
2018-Feb-21 23:15N 40°28' W 073°56'3 8.9
2018-Feb-21 22:55N 40°31' W 073°58'511.2
2018-Feb-21 22:28N 40°35' W 074°02'4 8.9
2018-Feb-21 22:00N 40°38' W 074°04'0 0.0
2018-Feb-21 21:30N 40°38' W 074°04'0 0.0
2018-Feb-21 21:00N 40°38' W 074°04'0 0.0
2018-Feb-21 20:30N 40°38' W 074°04'0 0.0
2018-Feb-21 19:58N 40°38' W 074°04'0 0.0
2018-Feb-21 19:28N 40°38' W 074°04'0 0.0
2018-Feb-21 18:58N 40°38' W 074°04'0 0.0
2018-Feb-21 18:28N 40°38' W 074°04'0 0.0
2018-Feb-21 17:58N 40°38' W 074°04'0 0.0
2018-Feb-21 17:28N 40°38' W 074°04'0 0.0
2018-Feb-21 16:58N 40°38' W 074°04'0 0.0
2018-Feb-21 16:28N 40°38' W 074°04'0 0.0
2018-Feb-21 15:58N 40°38' W 074°04'0 0.0
2018-Feb-21 15:28N 40°38' W 074°04'0 0.0
2018-Feb-21 14:58N 40°38' W 074°04'0 0.0
2018-Feb-21 14:28N 40°38' W 074°04'0 0.0
2018-Feb-21 13:58N 40°38' W 074°04'0 0.0
2018-Feb-21 13:28N 40°38' W 074°04'0 0.0
2018-Feb-21 12:58N 40°38' W 074°04'0 0.0
2018-Feb-21 12:28N 40°38' W 074°04'0 0.0
2018-Feb-21 11:58N 40°38' W 074°04'0 0.0
2018-Feb-21 11:28N 40°38' W 074°04'0 0.0
2018-Feb-21 10:58N 40°38' W 074°04'0 0.0
2018-Feb-21 10:28N 40°38' W 074°04'0 0.0
2018-Feb-21 09:58N 40°38' W 074°04'0 0.0
2018-Feb-21 09:28N 40°38' W 074°04'0 0.0
2018-Feb-21 08:58N 40°38' W 074°04'0 0.0
2018-Feb-21 08:28N 40°38' W 074°04'0 0.0
2018-Feb-21 07:58N 40°38' W 074°04'0 0.0
2018-Feb-21 07:28N 40°38' W 074°04'0 0.0
2018-Feb-21 06:58N 40°38' W 074°04'0 0.0
2018-Feb-21 06:28N 40°38' W 074°04'0 0.0
2018-Feb-21 05:58N 40°38' W 074°04'0 0.0
2018-Feb-21 05:28N 40°38' W 074°04'0 0.0
2018-Feb-21 04:58N 40°38' W 074°04'0 0.0
2018-Feb-21 04:28N 40°38' W 074°04'0 0.0
2018-Feb-21 03:58N 40°38' W 074°04'0 0.0
2018-Feb-21 03:28N 40°38' W 074°04'0 0.0
2018-Feb-21 02:58N 40°38' W 074°04'0 0.0
2018-Feb-21 02:28N 40°38' W 074°04'0 0.0
2018-Feb-21 01:58N 40°38' W 074°04'0 0.0
2018-Feb-21 01:28N 40°38' W 074°04'0 0.0
2018-Feb-21 00:58N 40°38' W 074°04'0 0.0
2018-Feb-21 00:28N 40°38' W 074°04'0 0.0
2018-Feb-20 23:58N 40°38' W 074°04'0 0.0
2018-Feb-20 23:28N 40°38' W 074°04'0 0.0
2018-Feb-20 22:58N 40°38' W 074°04'0 0.0
2018-Feb-20 22:28N 40°38' W 074°04'0 0.0
2018-Feb-20 21:58N 40°38' W 074°04'0 0.0
2018-Feb-20 21:28N 40°38' W 074°04'0 0.0
2018-Feb-20 20:58N 40°38' W 074°04'0 0.0
2018-Feb-20 20:28N 40°38' W 074°04'0 0.0
2018-Feb-20 19:58N 40°38' W 074°04'0 0.0
2018-Feb-20 19:28N 40°38' W 074°04'0 0.0
2018-Feb-20 18:58N 40°38' W 074°04'0 0.0
2018-Feb-20 18:28N 40°38' W 074°04'0 0.0
2018-Feb-20 17:58N 40°38' W 074°04'0 0.0
2018-Feb-20 17:28N 40°38' W 074°04'0 0.0
2018-Feb-20 16:58N 40°38' W 074°04'0 0.4
2018-Feb-20 16:28N 40°38' W 074°04'0 0.1
2018-Feb-20 15:58N 40°38' W 074°04'0 0.0
2018-Feb-20 15:28N 40°38' W 074°04'0 0.1
2018-Feb-20 14:58N 40°38' W 074°04'0 0.0
2018-Feb-20 14:16N 40°38' W 074°04'0 0.1
2018-Feb-20 13:58N 40°38' W 074°04'0 0.1
2018-Feb-20 13:28N 40°38' W 074°04'0 0.0
2018-Feb-20 12:58N 40°38' W 074°04'0 0.0
2018-Feb-20 12:22N 40°38' W 074°04'0 0.0
2018-Feb-20 11:55N 40°38' W 074°04'0 0.1
2018-Feb-20 11:28N 40°38' W 074°04'0 0.0
2018-Feb-20 10:58N 40°38' W 074°04'0 0.0
2018-Feb-20 10:28N 40°38' W 074°04'0 0.0
2018-Feb-20 09:58N 40°38' W 074°04'0 0.1
2018-Feb-20 09:28N 40°38' W 074°04'0 0.0
2018-Feb-20 08:58N 40°38' W 074°04'0 0.0
2018-Feb-20 08:28N 40°38' W 074°04'0 0.0
2018-Feb-20 07:58N 40°38' W 074°04'0 0.0
2018-Feb-20 07:28N 40°38' W 074°04'0 0.1
2018-Feb-20 06:58N 40°38' W 074°04'0 0.0
2018-Feb-20 06:25N 40°38' W 074°04'0 0.0
2018-Feb-20 05:58N 40°38' W 074°04'0 0.0
2018-Feb-20 05:28N 40°38' W 074°04'0 0.0
2018-Feb-20 04:58N 40°38' W 074°04'0 0.0
2018-Feb-20 04:28N 40°38' W 074°04'0 0.0
2018-Feb-20 03:58N 40°38' W 074°04'0 0.1
2018-Feb-20 03:28N 40°38' W 074°04'0 0.0
2018-Feb-20 02:58N 40°38' W 074°04'0 0.0
2018-Feb-20 02:25N 40°38' W 074°04'0 0.0
2018-Feb-20 01:58N 40°38' W 074°04'0 0.0
2018-Feb-20 01:28N 40°38' W 074°04'0 0.0
2018-Feb-20 00:58N 40°38' W 074°04'0 0.0
2018-Feb-20 00:25N 40°38' W 074°04'0 0.0
2018-Feb-19 23:58N 40°38' W 074°04'0 0.0
2018-Feb-19 23:28N 40°38' W 074°04'0 0.0
2018-Feb-19 22:58N 40°38' W 074°04'0 0.0
2018-Feb-19 22:25N 40°38' W 074°04'0 0.0
2018-Feb-19 21:58N 40°38' W 074°04'0 0.1
2018-Feb-19 21:25N 40°38' W 074°04'0 0.0
2018-Feb-19 20:58N 40°38' W 074°04'0 0.0
2018-Feb-19 20:30N 40°38' W 074°04'0 0.0
2018-Feb-19 19:59N 40°38' W 074°04'0 0.0
2018-Feb-19 19:30N 40°38' W 074°04'0 0.0
2018-Feb-19 19:00N 40°38' W 074°04'0 0.0
2018-Feb-19 18:30N 40°38' W 074°04'0 0.0
2018-Feb-19 18:00N 40°38' W 074°04'0 0.1
2018-Feb-19 17:30N 40°38' W 074°04'0 0.1
2018-Feb-19 16:59N 40°38' W 074°04'0 0.0
2018-Feb-19 16:30N 40°38' W 074°04'0 0.0
2018-Feb-19 16:00N 40°38' W 074°04'0 0.0
2018-Feb-19 15:30N 40°38' W 074°04'0 0.0
2018-Feb-19 15:00N 40°38' W 074°04'0 0.0
2018-Feb-19 14:30N 40°38' W 074°04'0 0.0
2018-Feb-19 14:00N 40°38' W 074°04'0 0.1
2018-Feb-19 13:30N 40°38' W 074°04'0 0.0
2018-Feb-19 13:00N 40°38' W 074°04'0 0.4
2018-Feb-19 12:30N 40°38' W 074°04'0 0.0
2018-Feb-19 12:00N 40°38' W 074°04'0 0.0
2018-Feb-19 11:30N 40°38' W 074°04'0 0.0
2018-Feb-19 11:00N 40°38' W 074°04'0 0.0
2018-Feb-19 10:30N 40°38' W 074°04'0 0.0
2018-Feb-19 10:00N 40°38' W 074°04'0 0.0
2018-Feb-19 09:30N 40°38' W 074°04'0 0.0
2018-Feb-19 09:00N 40°38' W 074°04'0 0.0
2018-Feb-19 08:24N 40°38' W 074°04'0 0.0
2018-Feb-19 08:00N 40°38' W 074°04'0 0.0
2018-Feb-19 07:30N 40°38' W 074°04'0 0.0
2018-Feb-19 06:57N 40°38' W 074°04'0 0.0
2018-Feb-19 06:27N 40°38' W 074°04'0 0.0
2018-Feb-19 06:01N 40°38' W 074°04'0 0.0
2018-Feb-19 05:30N 40°38' W 074°04'0 0.0
2018-Feb-19 04:57N 40°38' W 074°04'0 0.0
2018-Feb-19 04:30N 40°38' W 074°04'0 0.0
2018-Feb-19 04:00N 40°38' W 074°04'0 0.0
2018-Feb-19 03:30N 40°38' W 074°04'0 0.0
2018-Feb-19 03:00N 40°38' W 074°04'0 0.0
2018-Feb-19 02:30N 40°38' W 074°04'0 0.0
2018-Feb-19 02:00N 40°38' W 074°04'0 0.0
2018-Feb-19 01:30N 40°38' W 074°04'0 0.0
2018-Feb-19 01:00N 40°38' W 074°04'0 0.0
2018-Feb-19 00:30N 40°38' W 074°04'0 0.0
2018-Feb-19 00:00N 40°38' W 074°04'0 0.0
2018-Feb-18 23:30N 40°38' W 074°04'0 0.0
2018-Feb-18 23:00N 40°38' W 074°04'0 0.0
2018-Feb-18 22:30N 40°38' W 074°04'0 0.0
2018-Feb-18 22:00N 40°38' W 074°04'0 0.0
2018-Feb-18 21:30N 40°38' W 074°04'0 0.0
2018-Feb-18 21:00N 40°38' W 074°04'0 0.0
2018-Feb-18 20:30N 40°38' W 074°04'0 0.0
2018-Feb-18 20:00N 40°38' W 074°04'0 0.0
2018-Feb-18 19:24N 40°38' W 074°04'0 0.0
2018-Feb-18 19:00N 40°38' W 074°04'0 0.0
2018-Feb-18 18:30N 40°38' W 074°04'0 0.0
2018-Feb-18 18:00N 40°38' W 074°04'0 0.0
2018-Feb-18 17:30N 40°38' W 074°04'0 0.0
2018-Feb-18 17:00N 40°38' W 074°04'0 0.0
2018-Feb-18 16:30N 40°38' W 074°04'0 0.0
2018-Feb-18 16:00N 40°38' W 074°04'0 0.0
2018-Feb-18 15:27N 40°38' W 074°04'0 0.0
2018-Feb-18 15:00N 40°38' W 074°04'0 0.0
2018-Feb-18 14:30N 40°38' W 074°04'0 0.0
2018-Feb-18 14:00N 40°38' W 074°04'0 0.0
2018-Feb-18 13:30N 40°38' W 074°04'0 0.0
2018-Feb-18 13:00N 40°38' W 074°04'0 0.0
2018-Feb-18 12:30N 40°38' W 074°04'0 0.0
2018-Feb-18 11:57N 40°38' W 074°04'0 0.0
2018-Feb-18 11:30N 40°38' W 074°04'0 0.0
2018-Feb-18 11:00N 40°38' W 074°04'0 0.0
2018-Feb-18 10:30N 40°38' W 074°04'0 0.0
2018-Feb-18 10:00N 40°38' W 074°04'0 0.0
2018-Feb-18 09:27N 40°38' W 074°04'0 0.0
2018-Feb-18 09:00N 40°38' W 074°04'0 0.0
2018-Feb-18 08:30N 40°38' W 074°04'0 0.0
2018-Feb-18 08:00N 40°38' W 074°04'0 0.0
2018-Feb-18 07:30N 40°38' W 074°04'0 0.0
2018-Feb-18 07:00N 40°38' W 074°04'0 0.0
2018-Feb-18 06:30N 40°38' W 074°04'0 0.0
2018-Feb-18 06:00N 40°38' W 074°04'0 0.0
2018-Feb-18 05:30N 40°38' W 074°04'0 0.0
2018-Feb-18 05:00N 40°38' W 074°04'0 0.0
2018-Feb-18 04:30N 40°38' W 074°04'0 0.0
2018-Feb-18 04:00N 40°38' W 074°04'0 0.0
2018-Feb-18 03:30N 40°38' W 074°04'0 0.0
2018-Feb-18 03:00N 40°38' W 074°04'0 0.0
2018-Feb-18 02:30N 40°38' W 074°04'0 0.0
2018-Feb-18 02:00N 40°38' W 074°04'0 0.0
2018-Feb-18 01:30N 40°38' W 074°04'0 0.0
2018-Feb-18 01:00N 40°38' W 074°04'0 0.0
2018-Feb-18 00:30N 40°38' W 074°04'0 0.0
2018-Feb-18 00:00N 40°38' W 074°04'0 0.0
2018-Feb-17 23:30N 40°38' W 074°04'0 0.0
2018-Feb-17 23:00N 40°38' W 074°04'0 0.0
2018-Feb-17 22:30N 40°38' W 074°04'0 0.0
2018-Feb-17 22:00N 40°38' W 074°04'0 0.0
2018-Feb-17 21:30N 40°38' W 074°04'0 0.0
2018-Feb-17 21:00N 40°38' W 074°04'0 0.0
2018-Feb-17 20:30N 40°38' W 074°04'0 0.0
2018-Feb-17 20:00N 40°38' W 074°04'0 0.0
2018-Feb-17 19:30N 40°38' W 074°04'0 0.0
2018-Feb-17 19:00N 40°38' W 074°04'0 0.0
2018-Feb-17 18:30N 40°38' W 074°04'0 0.0
2018-Feb-17 18:00N 40°38' W 074°04'0 0.0
2018-Feb-17 17:30N 40°38' W 074°04'0 0.0
2018-Feb-17 17:00N 40°38' W 074°04'0 0.0
2018-Feb-17 16:30N 40°38' W 074°04'0 0.0
2018-Feb-17 16:00N 40°38' W 074°04'0 0.0
2018-Feb-17 15:30N 40°38' W 074°04'0 0.0
2018-Feb-17 15:00N 40°38' W 074°04'0 0.0
2018-Feb-17 14:30N 40°38' W 074°04'0 0.0
2018-Feb-17 14:00N 40°38' W 074°04'0 0.0
2018-Feb-17 13:30N 40°38' W 074°04'0 0.0
2018-Feb-17 13:00N 40°38' W 074°04'0 0.0
2018-Feb-17 12:30N 40°38' W 074°04'0 0.0
2018-Feb-17 12:00N 40°38' W 074°04'0 0.0
2018-Feb-17 11:30N 40°38' W 074°04'0 0.0
2018-Feb-17 10:57N 40°38' W 074°04'0 0.0
2018-Feb-17 10:30N 40°38' W 074°04'0 0.0
2018-Feb-17 10:00N 40°38' W 074°04'0 0.0
2018-Feb-17 09:30N 40°38' W 074°04'0 0.0
2018-Feb-17 09:00N 40°38' W 074°04'0 0.0
2018-Feb-17 08:30N 40°38' W 074°04'0 0.0
2018-Feb-17 08:00N 40°38' W 074°04'0 0.0
2018-Feb-17 07:30N 40°38' W 074°04'0 0.0
2018-Feb-17 07:00N 40°38' W 074°04'0 0.0
2018-Feb-17 06:30N 40°38' W 074°04'0 0.0
2018-Feb-17 06:00N 40°38' W 074°04'0 0.0
2018-Feb-17 05:30N 40°38' W 074°04'0 0.0
2018-Feb-17 05:00N 40°38' W 074°04'0 0.0
2018-Feb-17 04:30N 40°38' W 074°04'0 0.0
2018-Feb-17 04:00N 40°38' W 074°04'0 0.0
2018-Feb-17 03:30N 40°38' W 074°04'0 0.0
2018-Feb-17 03:00N 40°38' W 074°04'0 0.0
2018-Feb-17 02:30N 40°38' W 074°04'0 0.0
2018-Feb-17 02:00N 40°38' W 074°04'0 0.0
2018-Feb-17 01:30N 40°38' W 074°04'0 0.0
2018-Feb-17 01:00N 40°38' W 074°04'0 0.0
2018-Feb-17 00:30N 40°38' W 074°04'0 0.0
2018-Feb-17 00:00N 40°38' W 074°04'0 0.0
2018-Feb-16 23:30N 40°38' W 074°04'0 0.0
2018-Feb-16 23:00N 40°38' W 074°04'0 0.0
2018-Feb-16 22:30N 40°38' W 074°04'0 0.0
2018-Feb-16 22:00N 40°38' W 074°04'0 0.0
2018-Feb-16 21:30N 40°38' W 074°04'0 0.0
2018-Feb-16 21:00N 40°38' W 074°04'0 0.0
2018-Feb-16 20:30N 40°38' W 074°04'0 0.0
2018-Feb-16 19:57N 40°38' W 074°04'0 0.0
2018-Feb-16 19:30N 40°38' W 074°04'0 0.0
2018-Feb-16 19:00N 40°38' W 074°04'0 0.0
2018-Feb-16 18:30N 40°38' W 074°04'0 0.0
2018-Feb-16 18:00N 40°38' W 074°04'0 0.0
2018-Feb-16 17:30N 40°38' W 074°04'0 0.0
2018-Feb-16 17:00N 40°38' W 074°04'0 0.0
2018-Feb-16 16:30N 40°38' W 074°04'0 0.0
2018-Feb-16 16:00N 40°38' W 074°04'0 0.0
2018-Feb-16 15:30N 40°38' W 074°04'0 0.0
2018-Feb-16 15:00N 40°38' W 074°04'0 0.0
2018-Feb-16 14:30N 40°38' W 074°04'0 0.0
2018-Feb-16 14:00N 40°38' W 074°04'0 0.0
2018-Feb-16 13:30N 40°38' W 074°04'0 0.0
2018-Feb-16 13:00N 40°38' W 074°04'0 0.0
2018-Feb-16 12:30N 40°38' W 074°04'0 0.0
2018-Feb-16 12:00N 40°38' W 074°04'0 0.0
2018-Feb-16 11:30N 40°38' W 074°04'0 0.0
2018-Feb-16 11:00N 40°38' W 074°04'0 0.0
2018-Feb-16 10:30N 40°38' W 074°04'0 0.0
2018-Feb-16 10:00N 40°38' W 074°04'0 0.0
2018-Feb-16 09:30N 40°38' W 074°04'0 0.0
2018-Feb-16 09:00N 40°38' W 074°04'0 0.0
2018-Feb-16 08:30N 40°38' W 074°04'0 0.0
2018-Feb-16 08:00N 40°38' W 074°04'0 0.0
2018-Feb-16 07:30N 40°38' W 074°04'0 0.0
2018-Feb-16 07:00N 40°38' W 074°04'0 0.0
2018-Feb-16 06:30N 40°38' W 074°04'0 0.0
2018-Feb-16 06:00N 40°38' W 074°04'0 0.0
2018-Feb-16 05:30N 40°38' W 074°04'0 0.0
2018-Feb-16 05:00N 40°38' W 074°04'0 0.0
2018-Feb-16 04:30N 40°38' W 074°04'0 0.0
2018-Feb-16 04:00N 40°38' W 074°04'0 0.0
2018-Feb-16 03:27N 40°38' W 074°04'0 0.0
2018-Feb-16 03:00N 40°38' W 074°04'0 0.0
2018-Feb-16 02:30N 40°38' W 074°04'0 0.0
2018-Feb-16 02:00N 40°38' W 074°04'0 0.0
2018-Feb-16 01:30N 40°38' W 074°04'0 0.0
2018-Feb-16 01:00N 40°38' W 074°04'0 0.0
2018-Feb-16 00:30N 40°38' W 074°04'0 0.0
2018-Feb-16 00:00N 40°38' W 074°04'0 0.0
2018-Feb-15 23:30N 40°38' W 074°04'0 0.0
2018-Feb-15 23:00N 40°38' W 074°04'0 0.0
2018-Feb-15 22:30N 40°38' W 074°04'3 6.5
2018-Feb-15 22:00N 40°35' W 074°02'5 9.8
2018-Feb-15 21:30N 40°31' W 073°59'43 9.4
2018-Feb-15 16:54N 39°48' W 074°02'4 9.0
2018-Feb-15 16:27N 39°44' W 074°03'4 9.3
2018-Feb-15 15:57N 39°40' W 074°05'  
2018-Feb-12 22:02N 39°31' W 074°11'2 8.9
2018-Feb-12 21:45N 39°33' W 074°10'3 8.9
2018-Feb-12 21:27N 39°35' W 074°09'4 8.9
2018-Feb-12 21:00N 39°39' W 074°06'5 9.0
2018-Feb-12 20:30N 39°43' W 074°03'5 8.9
2018-Feb-12 19:59N 39°47' W 074°02'43 9.1
2018-Feb-12 15:14N 40°30' W 073°58'312.1
2018-Feb-12 15:00N 40°32' W 074°01'612.4
2018-Feb-12 14:30N 40°38' W 074°04'1 1.8
2018-Feb-12 14:00N 40°38' W 074°04'0 0.0
2018-Feb-12 13:30N 40°38' W 074°04'0 0.0
2018-Feb-12 12:57N 40°38' W 074°04'0 0.0
2018-Feb-12 12:30N 40°38' W 074°04'0 0.0
2018-Feb-12 12:00N 40°38' W 074°04'0 0.0
2018-Feb-12 11:30N 40°38' W 074°04'  
Track history (hours):
 
Tides and Currents Weather Stations Pressure Air Temp Water Temp Dewpoint Dewpoint Depression Visibility Wind Speed Wind Dir Waves Ship Positions

Rana Miller

Owner: Miller's Tug & Barge, Staten Island, NY. More information available from US FCC via Universal Licensing System and Coast Guard Vessel Documentation Center.

Last reported at 2018-Feb-22 11:15 UTC. Time now 2018-Feb-24 14:07 UTC.
Position N 38°60' W 074°35'.

Length 40 m; draft 3.1 m.

Type: Ship. MMSI: 367388520.

Date/timePositionNaut miles runAvg speedWind from/ knotsBaromVisibWave heightAir tempDewpointWater temp
2018-Feb-22 11:15N 38°60' W 074°35'2 8.6
2018-Feb-22 10:59N 39°02' W 074°34'38 8.2
2018-Feb-22 06:23N 39°34' W 074°09'3 7.9
2018-Feb-22 05:59N 39°37' W 074°07'4 7.9
2018-Feb-22 05:29N 39°41' W 074°05'4 7.9
2018-Feb-22 05:00N 39°44' W 074°04'42 7.7
2018-Feb-21 23:34N 40°25' W 073°56'3 8.5
2018-Feb-21 23:15N 40°28' W 073°56'3 8.9
2018-Feb-21 22:55N 40°31' W 073°58'511.2
2018-Feb-21 22:28N 40°35' W 074°02'4 8.9
2018-Feb-21 22:00N 40°38' W 074°04'0 0.0
2018-Feb-21 21:30N 40°38' W 074°04'0 0.0
2018-Feb-21 21:00N 40°38' W 074°04'0 0.0
2018-Feb-21 20:30N 40°38' W 074°04'0 0.0
2018-Feb-21 19:58N 40°38' W 074°04'0 0.0
2018-Feb-21 19:28N 40°38' W 074°04'0 0.0
2018-Feb-21 18:58N 40°38' W 074°04'0 0.0
2018-Feb-21 18:28N 40°38' W 074°04'0 0.0
2018-Feb-21 17:58N 40°38' W 074°04'0 0.0
2018-Feb-21 17:28N 40°38' W 074°04'0 0.0
2018-Feb-21 16:58N 40°38' W 074°04'0 0.0
2018-Feb-21 16:28N 40°38' W 074°04'0 0.0
2018-Feb-21 15:58N 40°38' W 074°04'0 0.0
2018-Feb-21 15:28N 40°38' W 074°04'0 0.0
2018-Feb-21 14:58N 40°38' W 074°04'0 0.0
2018-Feb-21 14:28N 40°38' W 074°04'0 0.0
2018-Feb-21 13:58N 40°38' W 074°04'0 0.0
2018-Feb-21 13:28N 40°38' W 074°04'0 0.0
2018-Feb-21 12:58N 40°38' W 074°04'0 0.0
2018-Feb-21 12:28N 40°38' W 074°04'0 0.0
2018-Feb-21 11:58N 40°38' W 074°04'0 0.0
2018-Feb-21 11:28N 40°38' W 074°04'0 0.0
2018-Feb-21 10:58N 40°38' W 074°04'0 0.0
2018-Feb-21 10:28N 40°38' W 074°04'0 0.0
2018-Feb-21 09:58N 40°38' W 074°04'0 0.0
2018-Feb-21 09:28N 40°38' W 074°04'0 0.0
2018-Feb-21 08:58N 40°38' W 074°04'0 0.0
2018-Feb-21 08:28N 40°38' W 074°04'0 0.0
2018-Feb-21 07:58N 40°38' W 074°04'0 0.0
2018-Feb-21 07:28N 40°38' W 074°04'0 0.0
2018-Feb-21 06:58N 40°38' W 074°04'0 0.0
2018-Feb-21 06:28N 40°38' W 074°04'0 0.0
2018-Feb-21 05:58N 40°38' W 074°04'0 0.0
2018-Feb-21 05:28N 40°38' W 074°04'0 0.0
2018-Feb-21 04:58N 40°38' W 074°04'0 0.0
2018-Feb-21 04:28N 40°38' W 074°04'0 0.0
2018-Feb-21 03:58N 40°38' W 074°04'0 0.0
2018-Feb-21 03:28N 40°38' W 074°04'0 0.0
2018-Feb-21 02:58N 40°38' W 074°04'0 0.0
2018-Feb-21 02:28N 40°38' W 074°04'0 0.0
2018-Feb-21 01:58N 40°38' W 074°04'0 0.0
2018-Feb-21 01:28N 40°38' W 074°04'0 0.0
2018-Feb-21 00:58N 40°38' W 074°04'0 0.0
2018-Feb-21 00:28N 40°38' W 074°04'0 0.0
2018-Feb-20 23:58N 40°38' W 074°04'0 0.0
2018-Feb-20 23:28N 40°38' W 074°04'0 0.0
2018-Feb-20 22:58N 40°38' W 074°04'0 0.0
2018-Feb-20 22:28N 40°38' W 074°04'0 0.0
2018-Feb-20 21:58N 40°38' W 074°04'0 0.0
2018-Feb-20 21:28N 40°38' W 074°04'0 0.0
2018-Feb-20 20:58N 40°38' W 074°04'0 0.0
2018-Feb-20 20:28N 40°38' W 074°04'0 0.0
2018-Feb-20 19:58N 40°38' W 074°04'0 0.0
2018-Feb-20 19:28N 40°38' W 074°04'0 0.0
2018-Feb-20 18:58N 40°38' W 074°04'0 0.0
2018-Feb-20 18:28N 40°38' W 074°04'0 0.0
2018-Feb-20 17:58N 40°38' W 074°04'0 0.0
2018-Feb-20 17:28N 40°38' W 074°04'0 0.0
2018-Feb-20 16:58N 40°38' W 074°04'0 0.4
2018-Feb-20 16:28N 40°38' W 074°04'0 0.1
2018-Feb-20 15:58N 40°38' W 074°04'0 0.0
2018-Feb-20 15:28N 40°38' W 074°04'0 0.1
2018-Feb-20 14:58N 40°38' W 074°04'0 0.0
2018-Feb-20 14:16N 40°38' W 074°04'0 0.1
2018-Feb-20 13:58N 40°38' W 074°04'0 0.1
2018-Feb-20 13:28N 40°38' W 074°04'0 0.0
2018-Feb-20 12:58N 40°38' W 074°04'0 0.0
2018-Feb-20 12:22N 40°38' W 074°04'0 0.0
2018-Feb-20 11:55N 40°38' W 074°04'0 0.1
2018-Feb-20 11:28N 40°38' W 074°04'0 0.0
2018-Feb-20 10:58N 40°38' W 074°04'0 0.0
2018-Feb-20 10:28N 40°38' W 074°04'0 0.0
2018-Feb-20 09:58N 40°38' W 074°04'0 0.1
2018-Feb-20 09:28N 40°38' W 074°04'0 0.0
2018-Feb-20 08:58N 40°38' W 074°04'0 0.0
2018-Feb-20 08:28N 40°38' W 074°04'0 0.0
2018-Feb-20 07:58N 40°38' W 074°04'0 0.0
2018-Feb-20 07:28N 40°38' W 074°04'0 0.1
2018-Feb-20 06:58N 40°38' W 074°04'0 0.0
2018-Feb-20 06:25N 40°38' W 074°04'0 0.0
2018-Feb-20 05:58N 40°38' W 074°04'0 0.0
2018-Feb-20 05:28N 40°38' W 074°04'0 0.0
2018-Feb-20 04:58N 40°38' W 074°04'0 0.0
2018-Feb-20 04:28N 40°38' W 074°04'0 0.0
2018-Feb-20 03:58N 40°38' W 074°04'0 0.1
2018-Feb-20 03:28N 40°38' W 074°04'0 0.0
2018-Feb-20 02:58N 40°38' W 074°04'0 0.0
2018-Feb-20 02:25N 40°38' W 074°04'0 0.0
2018-Feb-20 01:58N 40°38' W 074°04'0 0.0
2018-Feb-20 01:28N 40°38' W 074°04'0 0.0
2018-Feb-20 00:58N 40°38' W 074°04'0 0.0
2018-Feb-20 00:25N 40°38' W 074°04'0 0.0
2018-Feb-19 23:58N 40°38' W 074°04'0 0.0
2018-Feb-19 23:28N 40°38' W 074°04'0 0.0
2018-Feb-19 22:58N 40°38' W 074°04'0 0.0
2018-Feb-19 22:25N 40°38' W 074°04'0 0.0
2018-Feb-19 21:58N 40°38' W 074°04'0 0.1
2018-Feb-19 21:25N 40°38' W 074°04'0 0.0
2018-Feb-19 20:58N 40°38' W 074°04'0 0.0
2018-Feb-19 20:30N 40°38' W 074°04'0 0.0
2018-Feb-19 19:59N 40°38' W 074°04'0 0.0
2018-Feb-19 19:30N 40°38' W 074°04'0 0.0
2018-Feb-19 19:00N 40°38' W 074°04'0 0.0
2018-Feb-19 18:30N 40°38' W 074°04'0 0.0
2018-Feb-19 18:00N 40°38' W 074°04'0 0.1
2018-Feb-19 17:30N 40°38' W 074°04'0 0.1
2018-Feb-19 16:59N 40°38' W 074°04'0 0.0
2018-Feb-19 16:30N 40°38' W 074°04'0 0.0
2018-Feb-19 16:00N 40°38' W 074°04'0 0.0
2018-Feb-19 15:30N 40°38' W 074°04'0 0.0
2018-Feb-19 15:00N 40°38' W 074°04'0 0.0
2018-Feb-19 14:30N 40°38' W 074°04'0 0.0
2018-Feb-19 14:00N 40°38' W 074°04'0 0.1
2018-Feb-19 13:30N 40°38' W 074°04'0 0.0
2018-Feb-19 13:00N 40°38' W 074°04'0 0.4
2018-Feb-19 12:30N 40°38' W 074°04'0 0.0
2018-Feb-19 12:00N 40°38' W 074°04'0 0.0
2018-Feb-19 11:30N 40°38' W 074°04'0 0.0
2018-Feb-19 11:00N 40°38' W 074°04'0 0.0
2018-Feb-19 10:30N 40°38' W 074°04'0 0.0
2018-Feb-19 10:00N 40°38' W 074°04'0 0.0
2018-Feb-19 09:30N 40°38' W 074°04'0 0.0
2018-Feb-19 09:00N 40°38' W 074°04'0 0.0
2018-Feb-19 08:24N 40°38' W 074°04'0 0.0
2018-Feb-19 08:00N 40°38' W 074°04'0 0.0
2018-Feb-19 07:30N 40°38' W 074°04'0 0.0
2018-Feb-19 06:57N 40°38' W 074°04'0 0.0
2018-Feb-19 06:27N 40°38' W 074°04'0 0.0
2018-Feb-19 06:01N 40°38' W 074°04'0 0.0
2018-Feb-19 05:30N 40°38' W 074°04'0 0.0
2018-Feb-19 04:57N 40°38' W 074°04'0 0.0
2018-Feb-19 04:30N 40°38' W 074°04'0 0.0
2018-Feb-19 04:00N 40°38' W 074°04'0 0.0
2018-Feb-19 03:30N 40°38' W 074°04'0 0.0
2018-Feb-19 03:00N 40°38' W 074°04'0 0.0
2018-Feb-19 02:30N 40°38' W 074°04'0 0.0
2018-Feb-19 02:00N 40°38' W 074°04'0 0.0
2018-Feb-19 01:30N 40°38' W 074°04'0 0.0
2018-Feb-19 01:00N 40°38' W 074°04'0 0.0
2018-Feb-19 00:30N 40°38' W 074°04'0 0.0
2018-Feb-19 00:00N 40°38' W 074°04'0 0.0
2018-Feb-18 23:30N 40°38' W 074°04'0 0.0
2018-Feb-18 23:00N 40°38' W 074°04'0 0.0
2018-Feb-18 22:30N 40°38' W 074°04'0 0.0
2018-Feb-18 22:00N 40°38' W 074°04'0 0.0
2018-Feb-18 21:30N 40°38' W 074°04'0 0.0
2018-Feb-18 21:00N 40°38' W 074°04'0 0.0
2018-Feb-18 20:30N 40°38' W 074°04'0 0.0
2018-Feb-18 20:00N 40°38' W 074°04'0 0.0
2018-Feb-18 19:24N 40°38' W 074°04'0 0.0
2018-Feb-18 19:00N 40°38' W 074°04'0 0.0
2018-Feb-18 18:30N 40°38' W 074°04'0 0.0
2018-Feb-18 18:00N 40°38' W 074°04'0 0.0
2018-Feb-18 17:30N 40°38' W 074°04'0 0.0
2018-Feb-18 17:00N 40°38' W 074°04'0 0.0
2018-Feb-18 16:30N 40°38' W 074°04'0 0.0
2018-Feb-18 16:00N 40°38' W 074°04'0 0.0
2018-Feb-18 15:27N 40°38' W 074°04'0 0.0
2018-Feb-18 15:00N 40°38' W 074°04'0 0.0
2018-Feb-18 14:30N 40°38' W 074°04'0 0.0
2018-Feb-18 14:00N 40°38' W 074°04'0 0.0
2018-Feb-18 13:30N 40°38' W 074°04'0 0.0
2018-Feb-18 13:00N 40°38' W 074°04'0 0.0
2018-Feb-18 12:30N 40°38' W 074°04'0 0.0
2018-Feb-18 11:57N 40°38' W 074°04'0 0.0
2018-Feb-18 11:30N 40°38' W 074°04'0 0.0
2018-Feb-18 11:00N 40°38' W 074°04'0 0.0
2018-Feb-18 10:30N 40°38' W 074°04'0 0.0
2018-Feb-18 10:00N 40°38' W 074°04'0 0.0
2018-Feb-18 09:27N 40°38' W 074°04'0 0.0
2018-Feb-18 09:00N 40°38' W 074°04'0 0.0
2018-Feb-18 08:30N 40°38' W 074°04'0 0.0
2018-Feb-18 08:00N 40°38' W 074°04'0 0.0
2018-Feb-18 07:30N 40°38' W 074°04'0 0.0
2018-Feb-18 07:00N 40°38' W 074°04'0 0.0
2018-Feb-18 06:30N 40°38' W 074°04'0 0.0
2018-Feb-18 06:00N 40°38' W 074°04'0 0.0
2018-Feb-18 05:30N 40°38' W 074°04'0 0.0
2018-Feb-18 05:00N 40°38' W 074°04'0 0.0
2018-Feb-18 04:30N 40°38' W 074°04'0 0.0
2018-Feb-18 04:00N 40°38' W 074°04'0 0.0
2018-Feb-18 03:30N 40°38' W 074°04'0 0.0
2018-Feb-18 03:00N 40°38' W 074°04'0 0.0
2018-Feb-18 02:30N 40°38' W 074°04'0 0.0
2018-Feb-18 02:00N 40°38' W 074°04'0 0.0
2018-Feb-18 01:30N 40°38' W 074°04'0 0.0
2018-Feb-18 01:00N 40°38' W 074°04'0 0.0
2018-Feb-18 00:30N 40°38' W 074°04'0 0.0
2018-Feb-18 00:00N 40°38' W 074°04'0 0.0
2018-Feb-17 23:30N 40°38' W 074°04'0 0.0
2018-Feb-17 23:00N 40°38' W 074°04'0 0.0
2018-Feb-17 22:30N 40°38' W 074°04'0 0.0
2018-Feb-17 22:00N 40°38' W 074°04'0 0.0
2018-Feb-17 21:30N 40°38' W 074°04'0 0.0
2018-Feb-17 21:00N 40°38' W 074°04'0 0.0
2018-Feb-17 20:30N 40°38' W 074°04'0 0.0
2018-Feb-17 20:00N 40°38' W 074°04'0 0.0
2018-Feb-17 19:30N 40°38' W 074°04'0 0.0
2018-Feb-17 19:00N 40°38' W 074°04'0 0.0
2018-Feb-17 18:30N 40°38' W 074°04'0 0.0
2018-Feb-17 18:00N 40°38' W 074°04'0 0.0
2018-Feb-17 17:30N 40°38' W 074°04'0 0.0
2018-Feb-17 17:00N 40°38' W 074°04'0 0.0
2018-Feb-17 16:30N 40°38' W 074°04'0 0.0
2018-Feb-17 16:00N 40°38' W 074°04'0 0.0
2018-Feb-17 15:30N 40°38' W 074°04'0 0.0
2018-Feb-17 15:00N 40°38' W 074°04'0 0.0
2018-Feb-17 14:30N 40°38' W 074°04'0 0.0
2018-Feb-17 14:00N 40°38' W 074°04'0 0.0
2018-Feb-17 13:30N 40°38' W 074°04'0 0.0
2018-Feb-17 13:00N 40°38' W 074°04'0 0.0
2018-Feb-17 12:30N 40°38' W 074°04'0 0.0
2018-Feb-17 12:00N 40°38' W 074°04'0 0.0
2018-Feb-17 11:30N 40°38' W 074°04'0 0.0
2018-Feb-17 10:57N 40°38' W 074°04'0 0.0
2018-Feb-17 10:30N 40°38' W 074°04'0 0.0
2018-Feb-17 10:00N 40°38' W 074°04'0 0.0
2018-Feb-17 09:30N 40°38' W 074°04'0 0.0
2018-Feb-17 09:00N 40°38' W 074°04'0 0.0
2018-Feb-17 08:30N 40°38' W 074°04'0 0.0
2018-Feb-17 08:00N 40°38' W 074°04'0 0.0
2018-Feb-17 07:30N 40°38' W 074°04'0 0.0
2018-Feb-17 07:00N 40°38' W 074°04'0 0.0
2018-Feb-17 06:30N 40°38' W 074°04'0 0.0
2018-Feb-17 06:00N 40°38' W 074°04'0 0.0
2018-Feb-17 05:30N 40°38' W 074°04'0 0.0
2018-Feb-17 05:00N 40°38' W 074°04'0 0.0
2018-Feb-17 04:30N 40°38' W 074°04'0 0.0
2018-Feb-17 04:00N 40°38' W 074°04'0 0.0
2018-Feb-17 03:30N 40°38' W 074°04'0 0.0
2018-Feb-17 03:00N 40°38' W 074°04'0 0.0
2018-Feb-17 02:30N 40°38' W 074°04'0 0.0
2018-Feb-17 02:00N 40°38' W 074°04'0 0.0
2018-Feb-17 01:30N 40°38' W 074°04'0 0.0
2018-Feb-17 01:00N 40°38' W 074°04'0 0.0
2018-Feb-17 00:30N 40°38' W 074°04'0 0.0
2018-Feb-17 00:00N 40°38' W 074°04'0 0.0
2018-Feb-16 23:30N 40°38' W 074°04'0 0.0
2018-Feb-16 23:00N 40°38' W 074°04'0 0.0
2018-Feb-16 22:30N 40°38' W 074°04'0 0.0
2018-Feb-16 22:00N 40°38' W 074°04'0 0.0
2018-Feb-16 21:30N 40°38' W 074°04'0 0.0
2018-Feb-16 21:00N 40°38' W 074°04'0 0.0
2018-Feb-16 20:30N 40°38' W 074°04'0 0.0
2018-Feb-16 19:57N 40°38' W 074°04'0 0.0
2018-Feb-16 19:30N 40°38' W 074°04'0 0.0
2018-Feb-16 19:00N 40°38' W 074°04'0 0.0
2018-Feb-16 18:30N 40°38' W 074°04'0 0.0
2018-Feb-16 18:00N 40°38' W 074°04'0 0.0
2018-Feb-16 17:30N 40°38' W 074°04'0 0.0
2018-Feb-16 17:00N 40°38' W 074°04'0 0.0
2018-Feb-16 16:30N 40°38' W 074°04'0 0.0
2018-Feb-16 16:00N 40°38' W 074°04'0 0.0
2018-Feb-16 15:30N 40°38' W 074°04'0 0.0
2018-Feb-16 15:00N 40°38' W 074°04'0 0.0
2018-Feb-16 14:30N 40°38' W 074°04'0 0.0
2018-Feb-16 14:00N 40°38' W 074°04'0 0.0
2018-Feb-16 13:30N 40°38' W 074°04'0 0.0
2018-Feb-16 13:00N 40°38' W 074°04'0 0.0
2018-Feb-16 12:30N 40°38' W 074°04'0 0.0
2018-Feb-16 12:00N 40°38' W 074°04'0 0.0
2018-Feb-16 11:30N 40°38' W 074°04'0 0.0
2018-Feb-16 11:00N 40°38' W 074°04'0 0.0
2018-Feb-16 10:30N 40°38' W 074°04'0 0.0
2018-Feb-16 10:00N 40°38' W 074°04'0 0.0
2018-Feb-16 09:30N 40°38' W 074°04'0 0.0
2018-Feb-16 09:00N 40°38' W 074°04'0 0.0
2018-Feb-16 08:30N 40°38' W 074°04'0 0.0
2018-Feb-16 08:00N 40°38' W 074°04'0 0.0
2018-Feb-16 07:30N 40°38' W 074°04'0 0.0
2018-Feb-16 07:00N 40°38' W 074°04'0 0.0
2018-Feb-16 06:30N 40°38' W 074°04'0 0.0
2018-Feb-16 06:00N 40°38' W 074°04'0 0.0
2018-Feb-16 05:30N 40°38' W 074°04'0 0.0
2018-Feb-16 05:00N 40°38' W 074°04'0 0.0
2018-Feb-16 04:30N 40°38' W 074°04'0 0.0
2018-Feb-16 04:00N 40°38' W 074°04'0 0.0
2018-Feb-16 03:27N 40°38' W 074°04'0 0.0
2018-Feb-16 03:00N 40°38' W 074°04'0 0.0
2018-Feb-16 02:30N 40°38' W 074°04'0 0.0
2018-Feb-16 02:00N 40°38' W 074°04'0 0.0
2018-Feb-16 01:30N 40°38' W 074°04'0 0.0
2018-Feb-16 01:00N 40°38' W 074°04'0 0.0
2018-Feb-16 00:30N 40°38' W 074°04'0 0.0
2018-Feb-16 00:00N 40°38' W 074°04'0 0.0
2018-Feb-15 23:30N 40°38' W 074°04'0 0.0
2018-Feb-15 23:00N 40°38' W 074°04'0 0.0
2018-Feb-15 22:30N 40°38' W 074°04'3 6.5
2018-Feb-15 22:00N 40°35' W 074°02'5 9.8
2018-Feb-15 21:30N 40°31' W 073°59'43 9.4
2018-Feb-15 16:54N 39°48' W 074°02'4 9.0
2018-Feb-15 16:27N 39°44' W 074°03'4 9.3
2018-Feb-15 15:57N 39°40' W 074°05'  
2018-Feb-12 22:02N 39°31' W 074°11'2 8.9
2018-Feb-12 21:45N 39°33' W 074°10'3 8.9
2018-Feb-12 21:27N 39°35' W 074°09'4 8.9
2018-Feb-12 21:00N 39°39' W 074°06'5 9.0
2018-Feb-12 20:30N 39°43' W 074°03'5 8.9
2018-Feb-12 19:59N 39°47' W 074°02'43 9.1
2018-Feb-12 15:14N 40°30' W 073°58'312.1
2018-Feb-12 15:00N 40°32' W 074°01'612.4
2018-Feb-12 14:30N 40°38' W 074°04'1 1.8
2018-Feb-12 14:00N 40°38' W 074°04'0 0.0
2018-Feb-12 13:30N 40°38' W 074°04'0 0.0
2018-Feb-12 12:57N 40°38' W 074°04'0 0.0
2018-Feb-12 12:30N 40°38' W 074°04'0 0.0
2018-Feb-12 12:00N 40°38' W 074°04'0 0.0
2018-Feb-12 11:30N 40°38' W 074°04'  

Dump ship's entire track history